createdAt,value
2023-04-02T00:00:25.183Z,6.5850
2023-04-02T00:01:33.241Z,6.8160
2023-04-02T00:02:41.373Z,6.8957
2023-04-02T00:03:49.429Z,6.8316
2023-04-02T00:04:57.433Z,6.7033
2023-04-02T00:06:05.495Z,6.6781
2023-04-02T00:07:13.537Z,6.6981
2023-04-02T00:08:21.556Z,6.6525
2023-04-02T00:09:29.639Z,6.4025
2023-04-02T00:10:37.689Z,6.4837
2023-04-02T00:11:45.739Z,6.5797
2023-04-02T00:12:53.809Z,6.6653
2023-04-02T00:14:01.850Z,6.7794
2023-04-02T00:15:09.934Z,6.7756
2023-04-02T00:16:18.097Z,6.5591
2023-04-02T00:17:26.135Z,6.6216
2023-04-02T00:18:34.173Z,6.7118
2023-04-02T00:19:42.322Z,6.5793
2023-04-02T00:20:50.352Z,6.5322
2023-04-02T00:21:58.478Z,6.4593
2023-04-02T00:23:06.452Z,6.6636
2023-04-02T00:24:14.526Z,6.7656
2023-04-02T00:25:22.638Z,6.8652
2023-04-02T00:26:30.598Z,6.9705
2023-04-02T00:27:38.592Z,6.9848
2023-04-02T00:28:46.787Z,6.9394
2023-04-02T00:29:54.760Z,6.8576
2023-04-02T00:31:02.957Z,6.8574
2023-04-02T00:32:11.077Z,6.8579
2023-04-02T00:33:19.076Z,6.8770
2023-04-02T00:34:27.086Z,6.7929
2023-04-02T00:35:35.361Z,6.8511
2023-04-02T00:36:43.277Z,6.8713
2023-04-02T00:37:51.353Z,6.6863
2023-04-02T00:38:59.358Z,6.7052
2023-04-02T00:40:07.519Z,6.8356
2023-04-02T00:41:15.480Z,6.9125
2023-04-02T00:42:23.515Z,6.9077
2023-04-02T00:43:31.587Z,6.9377
2023-04-02T00:44:39.591Z,6.9606
2023-04-02T00:45:47.694Z,6.9459
2023-04-02T00:46:55.832Z,6.9217
2023-04-02T00:48:03.979Z,6.7847
2023-04-02T00:49:12.028Z,6.8557
2023-04-02T00:50:19.999Z,6.8837
2023-04-02T00:51:28.101Z,7.0367
2023-04-02T00:52:36.206Z,6.8942
2023-04-02T00:53:44.280Z,6.6697
2023-04-02T00:54:52.330Z,6.7267
2023-04-02T00:56:00.302Z,6.8576
2023-04-02T00:57:08.367Z,6.8700
2023-04-02T00:58:16.415Z,6.9018
2023-04-02T00:59:24.469Z,6.9182
2023-04-02T01:00:32.719Z,6.9564
2023-04-02T01:01:40.775Z,7.0638
2023-04-02T01:02:48.867Z,6.9707
2023-04-02T01:03:56.808Z,6.9232
2023-04-02T01:05:04.924Z,7.0252
2023-04-02T01:06:13.036Z,7.0483
2023-04-02T01:07:20.997Z,7.0590
2023-04-02T01:08:29.051Z,7.0424
2023-04-02T01:09:37.171Z,7.0014
2023-04-02T01:10:45.111Z,6.9663
2023-04-02T01:11:53.209Z,6.9670
2023-04-02T01:13:01.239Z,6.8322
2023-04-02T01:14:09.328Z,6.9444
2023-04-02T01:15:17.460Z,6.9236
2023-04-02T01:16:25.875Z,6.8745
2023-04-02T01:17:33.699Z,6.8915
2023-04-02T01:18:41.668Z,7.0338
2023-04-02T01:19:49.710Z,6.9901
2023-04-02T01:20:57.795Z,6.9098
2023-04-02T01:22:05.877Z,6.9888
2023-04-02T01:23:13.974Z,7.0838
2023-04-02T01:24:21.952Z,6.9466
2023-04-02T01:25:29.962Z,6.7227
2023-04-02T01:26:38.013Z,6.6996
2023-04-02T01:27:46.134Z,6.8013
2023-04-02T01:28:54.146Z,6.9304
2023-04-02T01:30:02.401Z,7.0884
2023-04-02T01:31:10.489Z,7.1648
2023-04-02T01:32:18.448Z,7.1883
2023-04-02T01:33:26.556Z,7.2196
2023-04-02T01:34:34.680Z,7.0334
2023-04-02T01:35:42.753Z,6.9917
2023-04-02T01:36:50.709Z,7.0317
2023-04-02T01:37:58.840Z,6.9701
2023-04-02T01:39:06.875Z,6.9611
2023-04-02T01:40:14.849Z,7.0136
2023-04-02T01:41:22.868Z,7.1349
2023-04-02T01:42:30.949Z,7.1069
2023-04-02T01:43:38.990Z,7.0914
2023-04-02T01:44:47.218Z,7.0350
2023-04-02T01:45:55.265Z,6.8648
2023-04-02T01:47:03.309Z,6.8749
2023-04-02T01:48:11.358Z,6.9199
2023-04-02T01:49:19.503Z,6.9213
2023-04-02T01:50:27.588Z,7.0367
2023-04-02T01:51:35.633Z,7.0247
2023-04-02T01:52:43.596Z,6.8869
2023-04-02T01:53:51.719Z,6.6388
2023-04-02T01:54:59.674Z,6.8156
2023-04-02T01:56:07.790Z,6.9331
2023-04-02T01:57:15.833Z,6.7443
2023-04-02T01:58:23.897Z,6.7990
2023-04-02T01:59:32.001Z,6.6571
2023-04-02T02:00:40.180Z,6.6829
2023-04-02T02:01:48.209Z,6.7612
2023-04-02T02:02:56.324Z,6.6973
2023-04-02T02:04:04.276Z,6.5692
2023-04-02T02:05:12.380Z,6.6754
2023-04-02T02:06:20.390Z,6.8644
2023-04-02T02:07:28.539Z,6.8610
2023-04-02T02:08:36.613Z,6.8675
2023-04-02T02:09:44.678Z,6.9989
2023-04-02T02:10:52.687Z,7.0683
2023-04-02T02:12:00.735Z,7.0948
2023-04-02T02:13:08.870Z,7.1282
2023-04-02T02:14:16.819Z,7.2055
2023-04-02T02:15:24.800Z,7.1833
2023-04-02T02:16:32.969Z,7.1683
2023-04-02T02:17:41.036Z,7.2024
2023-04-02T02:18:49.187Z,7.0784
2023-04-02T02:19:57.204Z,6.9659
2023-04-02T02:21:05.241Z,6.9733
2023-04-02T02:22:13.293Z,7.0691
2023-04-02T02:23:21.362Z,7.0872
2023-04-02T02:24:29.496Z,7.0370
2023-04-02T02:25:37.875Z,7.1383
2023-04-02T02:26:45.557Z,7.1795
2023-04-02T02:27:53.643Z,7.0981
2023-04-02T02:29:01.629Z,7.1048
2023-04-02T02:30:09.723Z,6.9201
2023-04-02T02:31:17.907Z,6.9270
2023-04-02T02:32:25.902Z,6.9211
2023-04-02T02:33:33.947Z,6.8719
2023-04-02T02:34:41.998Z,6.8595
2023-04-02T02:35:50.187Z,6.8032
2023-04-02T02:36:58.208Z,6.6142
2023-04-02T02:38:06.220Z,6.4170
2023-04-02T02:39:14.254Z,6.3401
2023-04-02T02:40:22.334Z,6.2468
2023-04-02T02:41:30.444Z,6.2594
2023-04-02T02:42:38.556Z,6.4425
2023-04-02T02:43:46.429Z,6.5278
2023-04-02T02:44:54.504Z,6.5572
2023-04-02T02:46:02.604Z,6.6127
2023-04-02T02:47:10.676Z,6.6613
2023-04-02T02:48:18.846Z,6.5909
2023-04-02T02:49:26.836Z,6.3540
2023-04-02T02:50:34.908Z,6.5755
2023-04-02T02:51:42.973Z,6.7153
2023-04-02T02:52:51.070Z,6.8385
2023-04-02T02:53:59.155Z,6.9007
2023-04-02T02:55:07.228Z,6.8833
2023-04-02T02:56:15.210Z,6.8696
2023-04-02T02:57:23.401Z,6.8103
2023-04-02T02:58:31.317Z,6.7891
2023-04-02T02:59:39.383Z,6.8721
2023-04-02T03:00:47.468Z,6.9079
2023-04-02T03:01:55.492Z,6.8871
2023-04-02T03:03:03.764Z,6.7317
2023-04-02T03:04:11.757Z,6.8339
2023-04-02T03:05:19.833Z,6.9171
2023-04-02T03:06:27.891Z,6.9264
2023-04-02T03:07:35.904Z,6.9497
2023-04-02T03:08:44.003Z,6.8797
2023-04-02T03:09:52.017Z,6.8368
2023-04-02T03:11:00.144Z,6.8011
2023-04-02T03:12:08.196Z,6.6233
2023-04-02T03:13:16.152Z,6.7052
2023-04-02T03:14:24.196Z,6.7782
2023-04-02T03:15:32.300Z,6.7889
2023-04-02T03:16:40.350Z,6.6542
2023-04-02T03:17:48.446Z,6.6815
2023-04-02T03:18:56.555Z,6.7105
2023-04-02T03:20:04.697Z,6.7965
2023-04-02T03:21:12.674Z,6.8284
2023-04-02T03:22:20.809Z,6.8282
2023-04-02T03:23:28.860Z,6.8160
2023-04-02T03:24:36.917Z,6.8444
2023-04-02T03:25:44.968Z,6.8164
2023-04-02T03:26:53.036Z,6.7839
2023-04-02T03:28:01.198Z,6.7786
2023-04-02T03:29:09.182Z,6.8055
2023-04-02T03:30:17.155Z,6.8696
2023-04-02T03:31:25.278Z,6.7839
2023-04-02T03:32:33.379Z,6.6800
2023-04-02T03:33:41.509Z,6.7168
2023-04-02T03:34:49.592Z,6.6565
2023-04-02T03:35:57.630Z,6.5301
2023-04-02T03:37:05.739Z,6.5181
2023-04-02T03:38:13.715Z,6.5516
2023-04-02T03:39:21.869Z,6.5226
2023-04-02T03:40:29.922Z,6.5362
2023-04-02T03:41:37.934Z,6.5980
2023-04-02T03:42:46.112Z,6.6405
2023-04-02T03:43:53.991Z,6.5858
2023-04-02T03:45:02.078Z,6.6016
2023-04-02T03:46:10.163Z,6.5741
2023-04-02T03:47:18.202Z,6.6457
2023-04-02T03:48:26.404Z,6.6947
2023-04-02T03:49:34.476Z,6.7042
2023-04-02T03:50:42.500Z,6.6466
2023-04-02T03:51:50.529Z,6.6926
2023-04-02T03:52:58.697Z,6.7311
2023-04-02T03:54:06.619Z,6.6489
2023-04-02T03:55:14.730Z,6.6266
2023-04-02T03:56:22.770Z,6.6188
2023-04-02T03:57:31.018Z,6.5867
2023-04-02T03:58:38.826Z,6.6331
2023-04-02T03:59:47.347Z,6.6798
2023-04-02T04:00:54.964Z,6.6897
2023-04-02T04:02:03.004Z,6.7355
2023-04-02T04:03:11.327Z,6.7490
2023-04-02T04:04:19.317Z,6.6346
2023-04-02T04:05:27.214Z,6.6081
2023-04-02T04:06:35.313Z,6.6232
2023-04-02T04:07:43.476Z,6.6554
2023-04-02T04:08:51.514Z,6.5917
2023-04-02T04:09:59.593Z,6.5682
2023-04-02T04:11:07.612Z,6.6706
2023-04-02T04:12:15.715Z,6.6722
2023-04-02T04:13:23.717Z,6.4509
2023-04-02T04:14:31.867Z,6.2356
2023-04-02T04:15:39.918Z,6.3275
2023-04-02T04:16:47.969Z,6.4509
2023-04-02T04:17:55.941Z,6.5560
2023-04-02T04:19:03.980Z,6.6310
2023-04-02T04:20:12.074Z,6.7229
2023-04-02T04:21:20.140Z,6.6159
2023-04-02T04:22:28.213Z,6.7836
2023-04-02T04:23:36.270Z,6.8744
2023-04-02T04:24:44.373Z,6.7344
2023-04-02T04:25:52.473Z,6.7117
2023-04-02T04:27:00.549Z,6.7551
2023-04-02T04:28:08.633Z,6.7958
2023-04-02T04:29:16.600Z,6.8513
2023-04-02T04:30:24.670Z,6.6993
2023-04-02T04:31:32.809Z,6.7984
2023-04-02T04:32:40.821Z,6.7715
2023-04-02T04:33:48.776Z,6.8232
2023-04-02T04:34:56.874Z,6.9293
2023-04-02T04:36:04.925Z,6.9541
2023-04-02T04:37:13.116Z,6.9020
2023-04-02T04:38:21.190Z,6.8829
2023-04-02T04:39:29.272Z,6.8518
2023-04-02T04:40:37.234Z,6.7117
2023-04-02T04:41:45.308Z,6.7660
2023-04-02T04:42:53.448Z,6.8835
2023-04-02T04:44:01.474Z,6.9390
2023-04-02T04:45:09.509Z,6.9499
2023-04-02T04:46:17.606Z,6.9156
2023-04-02T04:47:25.545Z,6.9255
2023-04-02T04:48:35.221Z,6.9619
2023-04-02T04:49:46.576Z,6.9264
2023-04-02T04:50:54.694Z,6.8885
2023-04-02T04:52:02.748Z,7.0098
2023-04-02T04:53:10.817Z,7.0626
2023-04-02T04:54:18.897Z,7.0971
2023-04-02T04:55:27.046Z,7.1374
2023-04-02T04:56:34.995Z,7.0828
2023-04-02T04:57:43.061Z,7.0834
2023-04-02T04:58:51.100Z,7.1252
2023-04-02T04:59:59.256Z,7.1786
2023-04-02T05:01:07.247Z,7.2552
2023-04-02T05:02:15.275Z,7.2718
2023-04-02T05:03:23.266Z,7.2524
2023-04-02T05:04:31.425Z,7.2526
2023-04-02T05:05:39.588Z,7.1456
2023-04-02T05:06:47.652Z,7.0966
2023-04-02T05:07:57.006Z,7.0821
2023-04-02T05:09:08.633Z,7.0388
2023-04-02T05:10:16.676Z,7.0288
2023-04-02T05:11:24.772Z,6.8894
2023-04-02T05:12:32.794Z,6.9476
2023-04-02T05:13:40.826Z,6.9987
2023-04-02T05:14:48.777Z,6.9993
2023-04-02T05:15:56.959Z,6.7500
2023-04-02T05:17:04.922Z,6.7488
2023-04-02T05:18:13.068Z,6.7607
2023-04-02T05:19:21.133Z,6.7448
2023-04-02T05:20:29.229Z,6.7120
2023-04-02T05:21:37.263Z,6.5966
2023-04-02T05:22:45.444Z,6.5999
2023-04-02T05:23:53.432Z,6.5913
2023-04-02T05:25:01.513Z,6.5768
2023-04-02T05:26:09.523Z,6.5682
2023-04-02T05:27:17.652Z,6.7408
2023-04-02T05:28:25.701Z,6.8583
2023-04-02T05:29:33.686Z,6.5837
2023-04-02T05:30:41.712Z,6.5034
2023-04-02T05:31:49.814Z,6.5987
2023-04-02T05:32:57.859Z,6.6352
2023-04-02T05:34:06.075Z,6.6911
2023-04-02T05:35:14.107Z,6.8663
2023-04-02T05:36:22.161Z,6.8129
2023-04-02T05:37:30.174Z,6.8700
2023-04-02T05:38:38.261Z,6.9815
2023-04-02T05:39:46.352Z,6.9571
2023-04-02T05:40:54.436Z,7.0594
2023-04-02T05:42:02.505Z,6.9348
2023-04-02T05:43:10.553Z,6.9169
2023-04-02T05:44:18.519Z,6.9472
2023-04-02T05:45:26.613Z,7.1385
2023-04-02T05:46:34.725Z,7.2474
2023-04-02T05:47:42.742Z,7.1578
2023-04-02T05:48:50.916Z,7.1961
2023-04-02T05:49:58.937Z,7.2825
2023-04-02T05:51:07.040Z,7.2696
2023-04-02T05:52:15.116Z,7.2284
2023-04-02T05:53:23.117Z,7.0580
2023-04-02T05:54:31.201Z,7.1416
2023-04-02T05:55:39.232Z,7.1402
2023-04-02T05:56:47.419Z,7.2022
2023-04-02T05:58:10.446Z,7.2169
2023-04-02T05:59:08.214Z,7.3211
2023-04-02T06:00:16.265Z,7.3113
2023-04-02T06:01:24.357Z,7.4017
2023-04-02T06:02:32.543Z,7.4801
2023-04-02T06:03:40.725Z,7.5368
2023-04-02T06:04:48.659Z,7.5654
2023-04-02T06:05:56.725Z,7.6306
2023-04-02T06:07:04.815Z,7.7155
2023-04-02T06:08:12.908Z,7.8757
2023-04-02T06:09:20.970Z,8.0064
2023-04-02T06:10:29.058Z,7.9238
2023-04-02T06:11:37.042Z,7.6405
2023-04-02T06:12:45.159Z,7.5280
2023-04-02T06:13:53.115Z,7.6201
2023-04-02T06:15:01.240Z,7.5169
2023-04-02T06:16:09.236Z,7.7092
2023-04-02T06:17:17.310Z,7.8534
2023-04-02T06:18:25.405Z,7.8288
2023-04-02T06:19:33.543Z,7.8654
2023-04-02T06:20:41.594Z,8.0029
2023-04-02T06:21:49.594Z,8.0478
2023-04-02T06:22:57.754Z,8.0518
2023-04-02T06:24:05.761Z,8.1048
2023-04-02T06:25:13.874Z,8.2682
2023-04-02T06:26:21.953Z,8.4389
2023-04-02T06:27:29.979Z,8.4153
2023-04-02T06:28:37.930Z,8.3344
2023-04-02T06:29:46.002Z,8.1187
2023-04-02T06:30:54.098Z,8.0146
2023-04-02T06:32:02.182Z,8.1025
2023-04-02T06:33:10.239Z,8.1881
2023-04-02T06:34:18.332Z,8.1857
2023-04-02T06:35:26.433Z,8.2688
2023-04-02T06:36:34.596Z,8.2755
2023-04-02T06:37:42.564Z,8.1895
2023-04-02T06:38:50.563Z,8.3337
2023-04-02T06:39:58.657Z,8.3253
2023-04-02T06:41:06.718Z,8.3392
2023-04-02T06:42:14.849Z,8.3831
2023-04-02T06:43:22.841Z,8.2654
2023-04-02T06:44:30.825Z,8.2068
2023-04-02T06:45:38.869Z,8.2959
2023-04-02T06:46:46.967Z,8.3295
2023-04-02T06:47:55.163Z,8.2961
2023-04-02T06:49:03.212Z,8.3695
2023-04-02T06:50:11.256Z,8.3283
2023-04-02T06:51:19.413Z,8.2749
2023-04-02T06:52:27.447Z,8.2404
2023-04-02T06:53:35.501Z,8.2675
2023-04-02T06:54:43.659Z,8.2688
2023-04-02T06:55:51.514Z,8.2640
2023-04-02T06:56:59.644Z,8.2452
2023-04-02T06:58:07.559Z,8.2513
2023-04-02T06:59:15.697Z,8.4140
2023-04-02T07:00:23.757Z,8.3363
2023-04-02T07:01:31.852Z,8.2684
2023-04-02T07:02:39.923Z,8.2227
2023-04-02T07:03:47.929Z,8.1778
2023-04-02T07:04:56.173Z,8.2202
2023-04-02T07:06:04.247Z,8.1895
2023-04-02T07:07:12.192Z,8.2042
2023-04-02T07:08:20.281Z,8.1452
2023-04-02T07:09:28.371Z,8.3058
2023-04-02T07:10:36.443Z,8.4266
2023-04-02T07:11:44.539Z,8.2337
2023-04-02T07:12:52.553Z,8.1059
2023-04-02T07:14:00.660Z,8.2337
2023-04-02T07:15:08.577Z,8.4288
2023-04-02T07:16:16.777Z,8.5406
2023-04-02T07:17:24.775Z,8.7086
2023-04-02T07:18:32.809Z,8.8923
2023-04-02T07:19:40.937Z,8.9360
2023-04-02T07:20:49.007Z,8.7815
2023-04-02T07:21:57.069Z,8.7317
2023-04-02T07:23:05.227Z,8.7354
2023-04-02T07:24:13.276Z,8.8475
2023-04-02T07:25:21.436Z,8.9425
2023-04-02T07:26:29.367Z,9.0266
2023-04-02T07:27:37.522Z,9.0503
2023-04-02T07:28:45.521Z,9.0268
2023-04-02T07:29:53.489Z,9.1536
2023-04-02T07:31:01.496Z,9.1046
2023-04-02T07:32:09.613Z,9.2057
2023-04-02T07:33:17.671Z,9.3802
2023-04-02T07:34:25.815Z,9.3427
2023-04-02T07:35:34.307Z,9.1706
2023-04-02T07:36:41.990Z,9.0234
2023-04-02T07:37:50.057Z,9.0533
2023-04-02T07:38:58.157Z,9.1460
2023-04-02T07:40:06.203Z,9.2709
2023-04-02T07:41:14.273Z,9.2471
2023-04-02T07:42:22.313Z,9.2953
2023-04-02T07:43:30.503Z,8.9116
2023-04-02T07:44:38.519Z,8.8900
2023-04-02T07:45:46.600Z,8.9967
2023-04-02T07:46:54.510Z,9.0642
2023-04-02T07:48:02.602Z,9.0874
2023-04-02T07:49:10.600Z,9.2139
2023-04-02T07:50:18.752Z,9.3943
2023-04-02T07:51:26.858Z,9.4418
2023-04-02T07:52:34.924Z,9.4035
2023-04-02T07:53:42.958Z,9.2110
2023-04-02T07:54:51.115Z,9.4907
2023-04-02T07:55:59.151Z,9.6572
2023-04-02T07:57:07.301Z,9.6844
2023-04-02T07:58:15.220Z,9.8122
2023-04-02T07:59:23.313Z,10.0140
2023-04-02T08:00:31.385Z,9.9879
2023-04-02T08:01:39.406Z,9.9242
2023-04-02T08:02:47.450Z,9.8935
2023-04-02T08:03:55.522Z,9.9314
2023-04-02T08:05:03.531Z,9.9484
2023-04-02T08:06:11.720Z,9.9355
2023-04-02T08:07:19.796Z,9.8189
2023-04-02T08:08:27.926Z,9.8492
2023-04-02T08:09:35.908Z,9.9259
2023-04-02T08:10:43.956Z,9.9686
2023-04-02T08:11:52.040Z,9.7472
2023-04-02T08:13:00.237Z,9.8365
2023-04-02T08:14:08.173Z,9.5891
2023-04-02T08:15:16.222Z,9.2597
2023-04-02T08:16:24.264Z,9.3655
2023-04-02T08:17:32.355Z,9.2751
2023-04-02T08:18:40.373Z,9.2482
2023-04-02T08:19:54.786Z,9.5387
2023-04-02T08:21:01.387Z,9.8201
2023-04-02T08:22:09.477Z,10.0032
2023-04-02T08:23:17.554Z,9.8227
2023-04-02T08:24:25.645Z,9.5040
2023-04-02T08:25:33.920Z,9.5740
2023-04-02T08:26:43.033Z,9.4359
2023-04-02T08:27:54.649Z,9.4306
2023-04-02T08:29:02.763Z,9.0352
2023-04-02T08:30:10.695Z,9.0810
2023-04-02T08:31:18.877Z,9.0117
2023-04-02T08:32:26.851Z,9.0236
2023-04-02T08:33:35.038Z,9.1355
2023-04-02T08:34:43.106Z,9.0186
2023-04-02T08:35:51.236Z,9.2919
2023-04-02T08:36:59.283Z,9.0794
2023-04-02T08:38:07.239Z,9.2288
2023-04-02T08:39:15.304Z,9.3083
2023-04-02T08:40:23.402Z,9.4701
2023-04-02T08:41:31.481Z,9.7279
2023-04-02T08:42:39.510Z,9.6469
2023-04-02T08:43:47.493Z,9.4390
2023-04-02T08:44:55.500Z,9.0489
2023-04-02T08:46:03.582Z,8.8996
2023-04-02T08:47:11.666Z,9.0688
2023-04-02T08:48:19.748Z,9.1920
2023-04-02T08:49:27.793Z,9.4050
2023-04-02T08:50:35.857Z,9.7977
2023-04-02T08:51:44.008Z,10.0388
2023-04-02T08:52:52.079Z,10.1720
2023-04-02T08:54:00.163Z,10.2111
2023-04-02T08:55:08.279Z,10.0024
2023-04-02T08:56:16.218Z,10.0594
2023-04-02T08:57:24.347Z,10.1771
2023-04-02T08:58:32.360Z,10.2834
2023-04-02T08:59:40.529Z,10.4398
2023-04-02T09:00:48.593Z,10.6196
2023-04-02T09:01:56.508Z,10.8098
2023-04-02T09:03:04.542Z,10.9071
2023-04-02T09:04:12.688Z,10.9101
2023-04-02T09:05:20.681Z,10.6517
2023-04-02T09:06:28.876Z,10.6578
2023-04-02T09:07:36.836Z,10.6236
2023-04-02T09:08:44.944Z,10.4777
2023-04-02T09:09:52.970Z,10.5283
2023-04-02T09:11:01.097Z,10.2177
2023-04-02T09:12:09.198Z,9.8357
2023-04-02T09:13:17.177Z,10.0900
2023-04-02T09:14:25.252Z,9.9469
2023-04-02T09:15:33.584Z,9.9107
2023-04-02T09:16:41.288Z,9.5996
2023-04-02T09:17:54.025Z,9.6877
2023-04-02T09:19:02.237Z,10.0054
2023-04-02T09:20:10.474Z,10.1771
2023-04-02T09:21:18.474Z,10.5059
2023-04-02T09:22:26.595Z,10.7285
2023-04-02T09:23:34.679Z,10.7137
2023-04-02T09:24:42.688Z,10.8867
2023-04-02T09:26:03.025Z,11.0810
2023-04-02T09:27:03.690Z,11.1001
2023-04-02T09:28:11.800Z,11.1007
2023-04-02T09:29:19.701Z,11.0360
2023-04-02T09:30:27.744Z,11.1871
2023-04-02T09:31:35.861Z,11.2532
2023-04-02T09:32:43.894Z,10.9128
2023-04-02T09:33:52.087Z,10.7571
2023-04-02T09:35:00.161Z,10.9368
2023-04-02T09:36:08.225Z,10.8031
2023-04-02T09:37:16.204Z,10.7146
2023-04-02T09:38:24.358Z,10.4592
2023-04-02T09:39:32.444Z,10.3873
2023-04-02T09:40:40.480Z,10.6664
2023-04-02T09:42:02.405Z,10.7446
2023-04-02T09:43:01.361Z,10.6743
2023-04-02T09:44:09.417Z,10.8046
2023-04-02T09:45:17.505Z,10.6641
2023-04-02T09:46:25.547Z,10.7146
2023-04-02T09:47:33.766Z,10.8859
2023-04-02T09:48:41.725Z,10.9330
2023-04-02T09:49:49.806Z,11.0312
2023-04-02T09:50:57.943Z,11.2078
2023-04-02T09:52:05.969Z,11.3635
2023-04-02T09:53:14.019Z,11.3351
2023-04-02T09:54:22.106Z,11.4228
2023-04-02T09:55:30.100Z,11.1762
2023-04-02T09:56:38.249Z,11.1459
2023-04-02T09:57:46.138Z,11.3478
2023-04-02T09:58:54.217Z,11.4146
2023-04-02T10:00:02.278Z,11.2374
2023-04-02T10:01:10.373Z,11.3784
2023-04-02T10:02:18.530Z,11.4951
2023-04-02T10:03:26.654Z,11.3871
2023-04-02T10:04:34.613Z,11.5094
2023-04-02T10:05:43.085Z,11.4911
2023-04-02T10:06:50.714Z,11.3730
2023-04-02T10:07:58.840Z,11.3965
2023-04-02T10:09:06.977Z,11.2742
2023-04-02T10:10:14.914Z,10.9423
2023-04-02T10:11:23.448Z,10.7362
2023-04-02T10:12:35.874Z,10.7731
2023-04-02T10:13:43.901Z,10.8596
2023-04-02T10:14:52.006Z,11.1409
2023-04-02T10:16:00.053Z,11.3000
2023-04-02T10:17:08.265Z,11.2759
2023-04-02T10:18:16.231Z,11.4821
2023-04-02T10:19:24.381Z,11.4688
2023-04-02T10:20:36.345Z,11.4198
2023-04-02T10:21:45.318Z,11.3831
2023-04-02T10:22:53.329Z,10.5590
2023-04-02T10:24:01.390Z,10.3925
2023-04-02T10:25:09.484Z,10.5172
2023-04-02T10:26:17.495Z,10.3717
2023-04-02T10:27:25.490Z,10.3829
2023-04-02T10:28:33.569Z,10.4613
2023-04-02T10:29:41.648Z,10.7264
2023-04-02T10:30:49.850Z,11.0322
2023-04-02T10:31:57.927Z,10.4754
2023-04-02T10:33:06.010Z,10.5975
2023-04-02T10:34:13.962Z,10.7413
2023-04-02T10:35:22.063Z,10.1437
2023-04-02T10:36:30.118Z,10.6023
2023-04-02T10:37:38.206Z,10.9896
2023-04-02T10:38:46.178Z,10.6995
2023-04-02T10:39:54.293Z,10.7573
2023-04-02T10:41:02.314Z,10.8859
2023-04-02T10:42:10.481Z,10.7953
2023-04-02T10:43:18.517Z,10.8725
2023-04-02T10:44:26.520Z,11.0579
2023-04-02T10:45:34.752Z,11.0385
2023-04-02T10:46:42.682Z,10.8083
2023-04-02T10:47:50.803Z,10.7209
2023-04-02T10:48:58.828Z,10.9156
2023-04-02T10:50:06.846Z,11.0455
2023-04-02T10:51:14.829Z,10.8790
2023-04-02T10:52:22.856Z,10.8657
2023-04-02T10:53:30.987Z,10.9063
2023-04-02T10:54:39.046Z,10.9820
2023-04-02T10:55:47.199Z,11.2223
2023-04-02T10:56:55.244Z,11.4856
2023-04-02T10:58:03.324Z,11.7524
2023-04-02T10:59:11.402Z,11.6956
2023-04-02T11:00:19.509Z,11.2479
2023-04-02T11:01:27.565Z,11.1806
2023-04-02T11:02:35.621Z,10.4476
2023-04-02T11:03:43.791Z,10.2710
2023-04-02T11:04:51.649Z,10.4146
2023-04-02T11:05:59.678Z,10.4602
2023-04-02T11:07:14.418Z,10.3709
2023-04-02T11:08:20.710Z,10.3823
2023-04-02T11:09:28.806Z,10.4958
2023-04-02T11:10:36.918Z,10.3520
2023-04-02T11:11:45.071Z,10.5342
2023-04-02T11:12:53.004Z,10.4068
2023-04-02T11:14:01.076Z,10.5656
2023-04-02T11:15:09.155Z,10.5170
2023-04-02T11:16:17.305Z,10.8033
2023-04-02T11:17:25.333Z,11.1050
2023-04-02T11:18:33.275Z,11.3299
2023-04-02T11:19:41.308Z,11.4045
2023-04-02T11:20:49.346Z,11.7768
2023-04-02T11:21:59.354Z,11.7421
2023-04-02T11:23:10.560Z,11.2058
2023-04-02T11:24:18.478Z,11.0936
2023-04-02T11:25:26.609Z,11.5783
2023-04-02T11:26:34.596Z,11.9487
2023-04-02T11:27:42.737Z,12.1077
2023-04-02T11:28:50.813Z,12.1396
2023-04-02T11:29:58.874Z,11.9557
2023-04-02T11:31:06.898Z,12.0738
2023-04-02T11:32:14.866Z,12.2025
2023-04-02T11:33:34.138Z,11.9864
2023-04-02T11:34:35.894Z,11.9254
2023-04-02T11:35:44.029Z,11.5208
2023-04-02T11:36:52.122Z,11.5315
2023-04-02T11:38:00.171Z,11.9666
2023-04-02T11:39:17.079Z,12.3433
2023-04-02T11:40:21.161Z,12.5962
2023-04-02T11:41:29.232Z,12.6292
2023-04-02T11:42:37.290Z,12.5342
2023-04-02T11:43:45.329Z,12.5340
2023-04-02T11:44:53.304Z,12.6078
2023-04-02T11:46:01.476Z,12.2954
2023-04-02T11:47:09.490Z,11.4829
2023-04-02T11:48:17.566Z,11.6448
2023-04-02T11:49:25.693Z,11.8016
2023-04-02T11:50:33.856Z,11.5920
2023-04-02T11:51:41.862Z,11.4247
2023-04-02T11:52:49.921Z,11.0896
2023-04-02T11:53:58.001Z,11.2765
2023-04-02T11:55:06.047Z,11.7032
2023-04-02T11:56:14.220Z,11.7202
2023-04-02T11:57:22.276Z,11.1644
2023-04-02T11:58:30.242Z,10.8710
2023-04-02T11:59:38.183Z,10.5462
2023-04-02T12:00:46.300Z,10.3474
2023-04-02T12:01:54.343Z,10.4514
2023-04-02T12:03:02.447Z,10.8792
2023-04-02T12:04:10.604Z,10.8115
2023-04-02T12:05:18.669Z,11.1064
2023-04-02T12:06:26.653Z,11.3152
2023-04-02T12:07:34.886Z,11.2460
2023-04-02T12:08:56.677Z,11.0690
2023-04-02T12:09:55.745Z,11.0538
2023-04-02T12:11:03.842Z,11.1890
2023-04-02T12:12:11.881Z,11.2328
2023-04-02T12:13:19.937Z,11.4188
2023-04-02T12:14:27.926Z,11.3990
2023-04-02T12:15:36.103Z,11.0936
2023-04-02T12:16:44.153Z,10.4155
2023-04-02T12:17:52.231Z,10.2860
2023-04-02T12:19:00.362Z,10.4344
2023-04-02T12:20:08.404Z,10.8294
2023-04-02T12:21:16.393Z,11.1470
2023-04-02T12:22:24.491Z,11.2027
2023-04-02T12:23:32.524Z,11.0032
2023-04-02T12:24:40.657Z,11.1026
2023-04-02T12:25:48.734Z,10.6581
2023-04-02T12:26:56.771Z,10.9822
2023-04-02T12:28:04.719Z,11.0709
2023-04-02T12:29:12.798Z,10.9479
2023-04-02T12:30:20.866Z,10.9368
2023-04-02T12:31:29.016Z,10.8912
2023-04-02T12:32:37.122Z,11.0925
2023-04-02T12:33:45.100Z,11.1470
2023-04-02T12:34:53.161Z,10.8975
2023-04-02T12:36:01.377Z,10.9195
2023-04-02T12:37:09.320Z,11.0080
2023-04-02T12:38:17.396Z,11.1653
2023-04-02T12:39:27.967Z,11.1823
2023-04-02T12:40:38.580Z,11.2923
2023-04-02T12:41:46.303Z,11.3309
2023-04-02T12:42:54.403Z,11.2313
2023-04-02T12:44:02.544Z,11.1022
2023-04-02T12:45:10.546Z,11.1474
2023-04-02T12:46:18.691Z,11.1350
2023-04-02T12:47:26.730Z,11.0137
2023-04-02T12:48:34.888Z,11.0467
2023-04-02T12:49:42.907Z,11.0625
2023-04-02T12:50:50.974Z,11.0713
2023-04-02T12:51:59.066Z,11.2059
2023-04-02T12:53:07.071Z,11.3053
2023-04-02T12:54:15.196Z,11.3839
2023-04-02T12:55:23.296Z,11.4775
2023-04-02T12:56:31.174Z,11.2210
2023-04-02T12:57:39.468Z,10.8950
2023-04-02T12:58:47.327Z,10.9546
2023-04-02T12:59:55.430Z,11.1699
2023-04-02T13:01:03.596Z,11.3868
2023-04-02T13:02:11.604Z,11.5748
2023-04-02T13:03:19.803Z,11.4737
2023-04-02T13:04:27.727Z,11.5174
2023-04-02T13:05:35.848Z,11.5426
2023-04-02T13:06:43.928Z,11.8037
2023-04-02T13:07:51.915Z,11.7387
2023-04-02T13:08:59.969Z,11.8190
2023-04-02T13:10:08.048Z,11.9273
2023-04-02T13:11:16.053Z,11.9809
2023-04-02T13:12:24.151Z,11.8521
2023-04-02T13:13:32.154Z,12.0601
2023-04-02T13:14:40.203Z,12.1932
2023-04-02T13:15:48.448Z,11.9263
2023-04-02T13:16:56.519Z,11.7608
2023-04-02T13:18:04.617Z,11.6298
2023-04-02T13:19:12.604Z,11.5735
2023-04-02T13:20:20.630Z,11.5981
2023-04-02T13:21:28.956Z,11.5035
2023-04-02T13:22:36.873Z,11.5517
2023-04-02T13:23:44.931Z,11.6896
2023-04-02T13:24:52.876Z,11.6359
2023-04-02T13:26:00.877Z,11.4997
2023-04-02T13:27:08.921Z,11.4198
2023-04-02T13:28:17.034Z,11.6353
2023-04-02T13:29:25.118Z,11.7923
2023-04-02T13:30:33.357Z,11.6452
2023-04-02T13:31:41.279Z,11.2883
2023-04-02T13:32:49.369Z,11.2922
2023-04-02T13:33:57.488Z,11.0932
2023-04-02T13:35:05.562Z,10.8695
2023-04-02T13:36:13.574Z,11.0900
2023-04-02T13:37:21.669Z,10.8878
2023-04-02T13:38:29.658Z,10.8296
2023-04-02T13:39:37.792Z,11.0448
2023-04-02T13:40:45.701Z,11.1846
2023-04-02T13:41:53.736Z,10.9624
2023-04-02T13:43:01.808Z,10.9271
2023-04-02T13:44:09.995Z,10.9111
2023-04-02T13:45:17.964Z,10.8151
2023-04-02T13:46:26.154Z,10.8290
2023-04-02T13:47:34.252Z,10.9370
2023-04-02T13:48:42.255Z,10.8847
2023-04-02T13:49:50.272Z,11.0314
2023-04-02T13:50:58.415Z,10.9223
2023-04-02T13:52:06.475Z,10.9969
2023-04-02T13:53:14.585Z,10.9776
2023-04-02T13:54:22.565Z,11.2201
2023-04-02T13:55:30.604Z,11.2689
2023-04-02T13:56:38.613Z,10.8887
2023-04-02T13:57:46.662Z,10.6681
2023-04-02T13:58:54.709Z,10.8176
2023-04-02T14:00:02.841Z,11.0820
2023-04-02T14:01:10.979Z,11.4266